sensor_id;sensor_type;location;lat;lon;timestamp;pressure;altitude;pressure_sealevel;temperature;humidity
18509;BME280;9383;50.928;12.116;2023-03-18T00:01:29;98334.63;;;8.28;56.51
18509;BME280;9383;50.928;12.116;2023-03-18T00:03:56;98326.63;;;8.29;56.19
18509;BME280;9383;50.928;12.116;2023-03-18T00:06:22;98323.94;;;8.31;56.41
18509;BME280;9383;50.928;12.116;2023-03-18T00:08:50;98322.13;;;8.31;56.71
18509;BME280;9383;50.928;12.116;2023-03-18T00:11:19;98323.84;;;8.33;56.40
18509;BME280;9383;50.928;12.116;2023-03-18T00:13:47;98328.28;;;8.32;56.67
18509;BME280;9383;50.928;12.116;2023-03-18T00:16:14;98325.66;;;8.32;56.80
18509;BME280;9383;50.928;12.116;2023-03-18T00:18:41;98323.84;;;8.33;56.75
18509;BME280;9383;50.928;12.116;2023-03-18T00:21:08;98325.66;;;8.32;57.16
18509;BME280;9383;50.928;12.116;2023-03-18T00:23:36;98322.22;;;8.30;56.86
18509;BME280;9383;50.928;12.116;2023-03-18T00:26:05;98323.97;;;8.29;57.23
18509;BME280;9383;50.928;12.116;2023-03-18T00:28:32;98318.78;;;8.28;57.26
18509;BME280;9383;50.928;12.116;2023-03-18T00:31:07;98315.28;;;8.26;57.69
18509;BME280;9383;50.928;12.116;2023-03-18T00:33:36;98333.91;;;8.23;57.86
18509;BME280;9383;50.928;12.116;2023-03-18T00:36:04;98326.00;;;8.21;57.52
18509;BME280;9383;50.928;12.116;2023-03-18T00:38:31;98332.34;;;8.17;58.09
18509;BME280;9383;50.928;12.116;2023-03-18T00:40:58;98328.00;;;8.14;57.96
18509;BME280;9383;50.928;12.116;2023-03-18T00:43:40;98328.13;;;8.11;58.03
18509;BME280;9383;50.928;12.116;2023-03-18T00:46:22;98322.09;;;8.08;58.34
18509;BME280;9383;50.928;12.116;2023-03-18T00:48:51;98331.78;;;8.07;58.24
18509;BME280;9383;50.928;12.116;2023-03-18T00:51:20;98331.84;;;8.06;58.35
18509;BME280;9383;50.928;12.116;2023-03-18T00:53:50;98338.84;;;8.07;58.01
18509;BME280;9383;50.928;12.116;2023-03-18T00:56:20;98337.06;;;8.07;58.15
18509;BME280;9383;50.928;12.116;2023-03-18T00:58:48;98330.91;;;8.07;57.94
18509;BME280;9383;50.928;12.116;2023-03-18T01:01:16;98321.16;;;8.09;57.97
18509;BME280;9383;50.928;12.116;2023-03-18T01:03:43;98325.59;;;8.08;58.22
18509;BME280;9383;50.928;12.116;2023-03-18T01:06:11;98326.44;;;8.09;57.67
18509;BME280;9383;50.928;12.116;2023-03-18T01:08:39;98331.69;;;8.10;57.98
18509;BME280;9383;50.928;12.116;2023-03-18T01:11:07;98339.56;;;8.12;57.84
18509;BME280;9383;50.928;12.116;2023-03-18T01:13:34;98333.38;;;8.13;57.75
18509;BME280;9383;50.928;12.116;2023-03-18T01:16:04;98338.56;;;8.14;57.26
18509;BME280;9383;50.928;12.116;2023-03-18T01:18:31;98335.88;;;8.16;57.27
18509;BME280;9383;50.928;12.116;2023-03-18T01:20:59;98325.28;;;8.18;57.66
18509;BME280;9383;50.928;12.116;2023-03-18T01:23:25;98325.97;;;8.23;56.51
18509;BME280;9383;50.928;12.116;2023-03-18T01:25:53;98329.34;;;8.28;56.52
18509;BME280;9383;50.928;12.116;2023-03-18T01:28:20;98322.94;;;8.34;55.80
18509;BME280;9383;50.928;12.116;2023-03-18T01:30:48;98323.53;;;8.42;55.39
18509;BME280;9383;50.928;12.116;2023-03-18T01:33:16;98333.81;;;8.50;54.54
18509;BME280;9383;50.928;12.116;2023-03-18T01:35:43;98341.63;;;8.54;54.39
18509;BME280;9383;50.928;12.116;2023-03-18T01:38:12;98340.56;;;8.58;54.25
18509;BME280;9383;50.928;12.116;2023-03-18T01:40:39;98335.25;;;8.60;54.25
18509;BME280;9383;50.928;12.116;2023-03-18T01:43:22;98339.59;;;8.61;54.27
18509;BME280;9383;50.928;12.116;2023-03-18T01:45:53;98344.03;;;8.61;54.50
18509;BME280;9383;50.928;12.116;2023-03-18T01:48:24;98328.88;;;8.66;53.63
18509;BME280;9383;50.928;12.116;2023-03-18T01:51:00;98327.03;;;8.68;53.58
18509;BME280;9383;50.928;12.116;2023-03-18T01:53:41;98333.91;;;8.72;53.42
18509;BME280;9383;50.928;12.116;2023-03-18T01:56:10;98332.16;;;8.72;53.37
18509;BME280;9383;50.928;12.116;2023-03-18T01:58:40;98344.44;;;8.73;52.92
18509;BME280;9383;50.928;12.116;2023-03-18T02:01:25;98345.25;;;8.76;53.00
18509;BME280;9383;50.928;12.116;2023-03-18T02:03:53;98352.19;;;8.78;53.25
18509;BME280;9383;50.928;12.116;2023-03-18T02:06:20;98356.53;;;8.81;52.46
18509;BME280;9383;50.928;12.116;2023-03-18T02:08:47;98351.16;;;8.82;52.58
18509;BME280;9383;50.928;12.116;2023-03-18T02:11:14;98360.81;;;8.83;52.32
18509;BME280;9383;50.928;12.116;2023-03-18T02:13:43;98359.88;;;8.84;52.51
18509;BME280;9383;50.928;12.116;2023-03-18T02:16:24;98350.16;;;8.86;52.17
18509;BME280;9383;50.928;12.116;2023-03-18T02:18:55;98356.28;;;8.87;52.36
18509;BME280;9383;50.928;12.116;2023-03-18T02:24:49;98358.16;;;8.83;52.47
18509;BME280;9383;50.928;12.116;2023-03-18T02:27:24;98365.28;;;8.81;52.48
18509;BME280;9383;50.928;12.116;2023-03-18T02:29:58;98366.22;;;8.80;52.85
18509;BME280;9383;50.928;12.116;2023-03-18T02:32:27;98373.34;;;8.78;52.84
18509;BME280;9383;50.928;12.116;2023-03-18T02:34:56;98363.69;;;8.77;52.90
18509;BME280;9383;50.928;12.116;2023-03-18T02:37:24;98363.81;;;8.74;52.90
18509;BME280;9383;50.928;12.116;2023-03-18T02:39:51;98360.34;;;8.72;52.99
18509;BME280;9383;50.928;12.116;2023-03-18T02:42:31;98363.97;;;8.69;53.55
18509;BME280;9383;50.928;12.116;2023-03-18T02:44:58;98363.09;;;8.69;53.32
18509;BME280;9383;50.928;12.116;2023-03-18T02:47:25;98361.38;;;8.68;53.45
18509;BME280;9383;50.928;12.116;2023-03-18T02:49:54;98366.66;;;8.68;53.04
18509;BME280;9383;50.928;12.116;2023-03-18T02:52:20;98379.06;;;8.66;53.75
18509;BME280;9383;50.928;12.116;2023-03-18T02:54:47;98373.78;;;8.66;53.46
18509;BME280;9383;50.928;12.116;2023-03-18T02:57:15;98377.41;;;8.63;53.87
18509;BME280;9383;50.928;12.116;2023-03-18T02:59:41;98383.59;;;8.62;53.56
18509;BME280;9383;50.928;12.116;2023-03-18T03:02:08;98376.59;;;8.61;53.71
18509;BME280;9383;50.928;12.116;2023-03-18T03:04:34;98385.47;;;8.58;53.91
18509;BME280;9383;50.928;12.116;2023-03-18T03:07:00;98392.59;;;8.56;54.16
18509;BME280;9383;50.928;12.116;2023-03-18T03:09:27;98391.81;;;8.54;54.08
18509;BME280;9383;50.928;12.116;2023-03-18T03:11:54;98392.72;;;8.53;54.42
18509;BME280;9383;50.928;12.116;2023-03-18T03:14:20;98393.66;;;8.52;54.24
18509;BME280;9383;50.928;12.116;2023-03-18T03:16:47;98398.00;;;8.53;53.80
18509;BME280;9383;50.928;12.116;2023-03-18T03:19:14;98401.56;;;8.52;54.25
18509;BME280;9383;50.928;12.116;2023-03-18T03:21:40;98405.97;;;8.52;54.04
18509;BME280;9383;50.928;12.116;2023-03-18T03:24:07;98413.97;;;8.50;54.42
18509;BME280;9383;50.928;12.116;2023-03-18T03:26:35;98411.41;;;8.47;54.63
18509;BME280;9383;50.928;12.116;2023-03-18T03:29:02;98417.59;;;8.46;54.63
18509;BME280;9383;50.928;12.116;2023-03-18T03:31:29;98415.00;;;8.44;54.65
18509;BME280;9383;50.928;12.116;2023-03-18T03:33:56;98415.94;;;8.43;54.93
18509;BME280;9383;50.928;12.116;2023-03-18T03:36:22;98411.63;;;8.41;55.01
18509;BME280;9383;50.928;12.116;2023-03-18T03:38:49;98417.94;;;8.37;55.51
18509;BME280;9383;50.928;12.116;2023-03-18T03:41:15;98423.22;;;8.37;55.22
18509;BME280;9383;50.928;12.116;2023-03-18T03:43:42;98419.00;;;8.31;55.61
18509;BME280;9383;50.928;12.116;2023-03-18T03:46:10;98414.63;;;8.30;55.87
18509;BME280;9383;50.928;12.116;2023-03-18T03:48:37;98414.69;;;8.28;55.89
18509;BME280;9383;50.928;12.116;2023-03-18T03:51:05;98425.28;;;8.27;56.60
18509;BME280;9383;50.928;12.116;2023-03-18T03:53:32;98424.59;;;8.22;56.90
18509;BME280;9383;50.928;12.116;2023-03-18T03:55:59;98425.66;;;8.16;57.64
18509;BME280;9383;50.928;12.116;2023-03-18T03:58:26;98432.88;;;8.11;57.40
18509;BME280;9383;50.928;12.116;2023-03-18T04:00:53;98426.06;;;8.03;58.17
18509;BME280;9383;50.928;12.116;2023-03-18T04:03:19;98423.69;;;7.96;58.79
18509;BME280;9383;50.928;12.116;2023-03-18T04:05:46;98427.34;;;7.92;59.26
18509;BME280;9383;50.928;12.116;2023-03-18T04:08:12;98430.91;;;7.91;59.05
18509;BME280;9383;50.928;12.116;2023-03-18T04:10:39;98434.53;;;7.86;59.81
18509;BME280;9383;50.928;12.116;2023-03-18T04:13:05;98436.38;;;7.83;59.81
18509;BME280;9383;50.928;12.116;2023-03-18T04:15:32;98434.72;;;7.80;60.30
18509;BME280;9383;50.928;12.116;2023-03-18T04:17:58;98428.47;;;7.83;59.93
18509;BME280;9383;50.928;12.116;2023-03-18T04:20:39;98429.38;;;7.82;59.55
18509;BME280;9383;50.928;12.116;2023-03-18T04:23:06;98442.56;;;7.82;59.88
18509;BME280;9383;50.928;12.116;2023-03-18T04:25:33;98410.59;;;7.64;60.00
18509;BME280;9383;50.928;12.116;2023-03-18T04:28:00;98439.03;;;7.83;59.85
18509;BME280;9383;50.928;12.116;2023-03-18T04:30:27;98438.19;;;7.82;59.66
18509;BME280;9383;50.928;12.116;2023-03-18T04:32:54;98440.81;;;7.82;60.03
18509;BME280;9383;50.928;12.116;2023-03-18T04:35:21;98435.50;;;7.84;59.85
18509;BME280;9383;50.928;12.116;2023-03-18T04:37:49;98440.78;;;7.84;59.74
18509;BME280;9383;50.928;12.116;2023-03-18T04:40:16;98442.50;;;7.85;60.15
18509;BME280;9383;50.928;12.116;2023-03-18T04:42:43;98439.03;;;7.83;60.05
18509;BME280;9383;50.928;12.116;2023-03-18T04:45:13;98439.03;;;7.83;60.19
18509;BME280;9383;50.928;12.116;2023-03-18T04:47:41;98444.31;;;7.83;60.09
18509;BME280;9383;50.928;12.116;2023-03-18T04:50:09;98445.28;;;7.80;60.57
18509;BME280;9383;50.928;12.116;2023-03-18T04:52:38;98439.25;;;7.77;60.91
18509;BME280;9383;50.928;12.116;2023-03-18T04:55:06;98443.81;;;7.71;61.64
18509;BME280;9383;50.928;12.116;2023-03-18T04:57:33;98447.44;;;7.67;61.61
18509;BME280;9383;50.928;12.116;2023-03-18T05:00:02;98449.22;;;7.67;61.68
18509;BME280;9383;50.928;12.116;2023-03-18T05:02:31;98452.09;;;7.59;62.15
18509;BME280;9383;50.928;12.116;2023-03-18T05:05:07;98450.34;;;7.58;62.00
18509;BME280;9383;50.928;12.116;2023-03-18T05:07:33;98456.59;;;7.55;62.11
18509;BME280;9383;50.928;12.116;2023-03-18T05:10:00;98454.88;;;7.54;62.52
18509;BME280;9383;50.928;12.116;2023-03-18T05:12:26;98455.81;;;7.52;63.08
18509;BME280;9383;50.928;12.116;2023-03-18T05:14:53;98451.47;;;7.51;63.22
18509;BME280;9383;50.928;12.116;2023-03-18T05:17:19;98452.31;;;7.51;63.37
18509;BME280;9383;50.928;12.116;2023-03-18T05:19:47;98450.56;;;7.52;63.23
18509;BME280;9383;50.928;12.116;2023-03-18T05:22:15;98434.75;;;7.50;63.38
18509;BME280;9383;50.928;12.116;2023-03-18T05:24:44;98447.09;;;7.50;63.70
18509;BME280;9383;50.928;12.116;2023-03-18T05:27:12;98444.50;;;7.48;64.57
18509;BME280;9383;50.928;12.116;2023-03-18T05:29:39;98442.75;;;7.49;64.18
18509;BME280;9383;50.928;12.116;2023-03-18T05:32:07;98439.22;;;7.48;64.36
18509;BME280;9383;50.928;12.116;2023-03-18T05:34:34;98368.44;;;7.06;63.83
18509;BME280;9383;50.928;12.116;2023-03-18T05:37:06;98444.50;;;7.48;63.45
18509;BME280;9383;50.928;12.116;2023-03-18T05:39:33;98442.75;;;7.49;64.54
18509;BME280;9383;50.928;12.116;2023-03-18T05:42:00;98435.63;;;7.51;64.46
18509;BME280;9383;50.928;12.116;2023-03-18T05:44:28;98432.97;;;7.52;64.65
18509;BME280;9383;50.928;12.116;2023-03-18T05:46:55;98438.19;;;7.54;64.29
18509;BME280;9383;50.928;12.116;2023-03-18T05:49:22;98437.25;;;7.55;63.82
18509;BME280;9383;50.928;12.116;2023-03-18T05:51:49;98437.22;;;7.56;63.83
18509;BME280;9383;50.928;12.116;2023-03-18T05:54:16;98433.69;;;7.57;63.64
18509;BME280;9383;50.928;12.116;2023-03-18T05:56:43;98439.78;;;7.58;63.95
18509;BME280;9383;50.928;12.116;2023-03-18T05:59:12;98448.63;;;7.57;64.28
18509;BME280;9383;50.928;12.116;2023-03-18T06:01:39;98439.78;;;7.58;63.98
18509;BME280;9383;50.928;12.116;2023-03-18T06:04:07;98449.50;;;7.57;64.47
18509;BME280;9383;50.928;12.116;2023-03-18T06:06:35;98443.31;;;7.58;64.10
18509;BME280;9383;50.928;12.116;2023-03-18T06:09:04;98442.41;;;7.59;64.29
18509;BME280;9383;50.928;12.116;2023-03-18T06:11:32;98446.88;;;7.57;64.62
18509;BME280;9383;50.928;12.116;2023-03-18T06:13:59;98440.69;;;7.58;64.24
18509;BME280;9383;50.928;12.116;2023-03-18T06:16:26;98448.56;;;7.60;64.03
18509;BME280;9383;50.928;12.116;2023-03-18T06:18:53;98444.19;;;7.59;63.95
18509;BME280;9383;50.928;12.116;2023-03-18T06:21:20;98441.56;;;7.59;63.85
18509;BME280;9383;50.928;12.116;2023-03-18T06:23:46;98449.50;;;7.57;64.25
18509;BME280;9383;50.928;12.116;2023-03-18T06:26:13;98453.09;;;7.55;64.29
18509;BME280;9383;50.928;12.116;2023-03-18T06:28:40;98452.25;;;7.54;64.51
18509;BME280;9383;50.928;12.116;2023-03-18T06:31:07;98459.28;;;7.54;64.45
18509;BME280;9383;50.928;12.116;2023-03-18T06:33:33;98453.16;;;7.53;64.49
18509;BME280;9383;50.928;12.116;2023-03-18T06:36:00;98452.25;;;7.54;64.74
18509;BME280;9383;50.928;12.116;2023-03-18T06:38:27;98463.59;;;7.56;64.51
18509;BME280;9383;50.928;12.116;2023-03-18T06:40:54;98465.28;;;7.59;64.62
18509;BME280;9383;50.928;12.116;2023-03-18T06:43:21;98473.13;;;7.60;64.51
18509;BME280;9383;50.928;12.116;2023-03-18T06:45:48;98460.72;;;7.64;64.09
18509;BME280;9383;50.928;12.116;2023-03-18T06:48:15;98462.31;;;7.70;64.32
18509;BME280;9383;50.928;12.116;2023-03-18T06:50:42;98459.56;;;7.73;63.42
18509;BME280;9383;50.928;12.116;2023-03-18T06:53:09;98461.16;;;7.79;62.74
18509;BME280;9383;50.928;12.116;2023-03-18T06:55:36;98475.09;;;7.84;62.54
18509;BME280;9383;50.928;12.116;2023-03-18T06:58:04;98475.78;;;7.89;62.66
18509;BME280;9383;50.928;12.116;2023-03-18T07:00:31;98466.84;;;7.93;62.87
18509;BME280;9383;50.928;12.116;2023-03-18T07:02:59;98460.47;;;8.00;64.07
18509;BME280;9383;50.928;12.116;2023-03-18T07:05:27;98462.00;;;8.08;64.40
18509;BME280;9383;50.928;12.116;2023-03-18T07:07:54;98465.22;;;8.18;64.04
18509;BME280;9383;50.928;12.116;2023-03-18T07:10:26;98468.38;;;8.29;63.91
18509;BME280;9383;50.928;12.116;2023-03-18T07:12:54;98465.41;;;8.38;63.83
18509;BME280;9383;50.928;12.116;2023-03-18T07:15:22;98469.44;;;8.50;63.79
18509;BME280;9383;50.928;12.116;2023-03-18T07:17:49;98479.72;;;8.60;63.43
18509;BME280;9383;50.928;12.116;2023-03-18T07:20:17;98482.88;;;8.69;62.83
18509;BME280;9383;50.928;12.116;2023-03-18T07:22:45;98456.78;;;8.60;61.46
18509;BME280;9383;50.928;12.116;2023-03-18T07:25:12;98489.41;;;8.84;60.54
18509;BME280;9383;50.928;12.116;2023-03-18T07:27:39;98493.56;;;8.92;59.67
18509;BME280;9383;50.928;12.116;2023-03-18T07:30:06;98501.28;;;8.98;59.25
18509;BME280;9383;50.928;12.116;2023-03-18T07:32:36;98496.56;;;9.06;58.99
18509;BME280;9383;50.928;12.116;2023-03-18T07:35:04;98491.88;;;9.14;59.35
18509;BME280;9383;50.928;12.116;2023-03-18T07:37:31;98481.88;;;9.23;59.52
18509;BME280;9383;50.928;12.116;2023-03-18T07:39:58;98494.75;;;9.32;59.11
18509;BME280;9383;50.928;12.116;2023-03-18T07:42:25;98496.19;;;9.41;58.99
18509;BME280;9383;50.928;12.116;2023-03-18T07:44:52;98500.16;;;9.53;59.47
18509;BME280;9383;50.928;12.116;2023-03-18T07:47:18;98501.56;;;9.63;58.93
18509;BME280;9383;50.928;12.116;2023-03-18T07:49:46;98496.81;;;9.71;58.16
18509;BME280;9383;50.928;12.116;2023-03-18T07:52:13;98493.69;;;9.84;59.18
18509;BME280;9383;50.928;12.116;2023-03-18T07:54:39;98489.56;;;9.99;59.52
18509;BME280;9383;50.928;12.116;2023-03-18T07:57:07;98500.41;;;10.15;58.77
18509;BME280;9383;50.928;12.116;2023-03-18T07:59:33;98496.25;;;10.30;59.17
18509;BME280;9383;50.928;12.116;2023-03-18T08:02:00;98493.31;;;10.38;57.52
18509;BME280;9383;50.928;12.116;2023-03-18T08:04:26;98501.59;;;10.52;58.25
18509;BME280;9383;50.928;12.116;2023-03-18T08:06:54;98507.50;;;10.59;58.00
18509;BME280;9383;50.928;12.116;2023-03-18T08:09:20;98510.75;;;10.66;57.39
18509;BME280;9383;50.928;12.116;2023-03-18T08:11:47;98524.59;;;10.73;57.27
18509;BME280;9383;50.928;12.116;2023-03-18T08:14:13;98529.16;;;10.69;56.85
18509;BME280;9383;50.928;12.116;2023-03-18T08:16:40;98521.34;;;10.66;58.07
18509;BME280;9383;50.928;12.116;2023-03-18T08:19:07;98519.53;;;10.66;57.04
18509;BME280;9383;50.928;12.116;2023-03-18T08:21:33;98524.97;;;10.63;57.76
18509;BME280;9383;50.928;12.116;2023-03-18T08:24:02;98523.19;;;10.64;58.28
18509;BME280;9383;50.928;12.116;2023-03-18T08:26:30;98517.91;;;10.64;57.72
18509;BME280;9383;50.928;12.116;2023-03-18T08:28:57;98526.09;;;10.58;57.38
18509;BME280;9383;50.928;12.116;2023-03-18T08:31:24;98521.53;;;10.61;58.92
18509;BME280;9383;50.928;12.116;2023-03-18T08:33:51;98523.84;;;10.69;59.18
18509;BME280;9383;50.928;12.116;2023-03-18T08:36:19;98527.16;;;10.74;58.56
18509;BME280;9383;50.928;12.116;2023-03-18T08:38:46;98518.03;;;10.81;59.12
18509;BME280;9383;50.928;12.116;2023-03-18T08:41:14;98518.69;;;10.87;58.38
18509;BME280;9383;50.928;12.116;2023-03-18T08:43:42;98517.66;;;10.91;58.25
18509;BME280;9383;50.928;12.116;2023-03-18T08:46:10;98519.81;;;11.02;59.09
18509;BME280;9383;50.928;12.116;2023-03-18T08:48:36;98522.13;;;11.09;58.27
18509;BME280;9383;50.928;12.116;2023-03-18T08:51:06;98526.09;;;11.20;58.36
18509;BME280;9383;50.928;12.116;2023-03-18T08:53:34;98531.06;;;11.28;57.15
18509;BME280;9383;50.928;12.116;2023-03-18T08:56:01;98534.25;;;11.36;57.30
18509;BME280;9383;50.928;12.116;2023-03-18T08:58:28;98535.47;;;11.48;57.36
18509;BME280;9383;50.928;12.116;2023-03-18T09:00:55;98526.03;;;11.61;57.70
18509;BME280;9383;50.928;12.116;2023-03-18T09:03:22;98528.09;;;11.74;57.88
18509;BME280;9383;50.928;12.116;2023-03-18T09:05:52;98523.03;;;11.88;57.01
18509;BME280;9383;50.928;12.116;2023-03-18T09:08:21;98533.06;;;12.01;57.31
18509;BME280;9383;50.928;12.116;2023-03-18T09:10:50;98528.06;;;12.14;57.36
18509;BME280;9383;50.928;12.116;2023-03-18T09:13:17;98526.38;;;12.30;55.95
18509;BME280;9383;50.928;12.116;2023-03-18T09:15:44;98530.25;;;12.42;55.88
18509;BME280;9383;50.928;12.116;2023-03-18T09:18:10;98537.13;;;12.46;54.26
18509;BME280;9383;50.928;12.116;2023-03-18T09:20:39;98539.16;;;12.41;54.34
18509;BME280;9383;50.928;12.116;2023-03-18T09:23:07;98533.38;;;12.50;56.04
18509;BME280;9383;50.928;12.116;2023-03-18T09:25:34;98529.63;;;12.55;55.58
18509;BME280;9383;50.928;12.116;2023-03-18T09:28:01;98523.69;;;12.67;55.99
18509;BME280;9383;50.928;12.116;2023-03-18T09:30:28;98530.28;;;12.77;56.27
18509;BME280;9383;50.928;12.116;2023-03-18T09:32:55;98536.16;;;12.84;55.45
18509;BME280;9383;50.928;12.116;2023-03-18T09:35:22;98533.41;;;12.86;55.50
18509;BME280;9383;50.928;12.116;2023-03-18T09:37:48;98533.09;;;12.92;55.10
18509;BME280;9383;50.928;12.116;2023-03-18T09:40:23;98526.66;;;12.96;54.81
18509;BME280;9383;50.928;12.116;2023-03-18T09:45:32;98539.34;;;13.08;55.52
18509;BME280;9383;50.928;12.116;2023-03-18T09:53:20;98542.31;;;13.20;54.93
18509;BME280;9383;50.928;12.116;2023-03-18T09:55:52;98538.78;;;13.19;55.49
18509;BME280;9383;50.928;12.116;2023-03-18T09:58:41;98528.22;;;13.18;55.61
18509;BME280;9383;50.928;12.116;2023-03-18T10:01:12;98527.97;;;13.22;56.66
18509;BME280;9383;50.928;12.116;2023-03-18T10:03:50;98529.78;;;13.22;55.67
18509;BME280;9383;50.928;12.116;2023-03-18T10:06:21;98526.00;;;13.26;57.34
18509;BME280;9383;50.928;12.116;2023-03-18T10:09:15;98533.75;;;13.31;57.50
18509;BME280;9383;50.928;12.116;2023-03-18T10:11:50;98536.25;;;13.34;57.94
18509;BME280;9383;50.928;12.116;2023-03-18T10:17:24;98541.50;;;13.53;56.01
18509;BME280;9383;50.928;12.116;2023-03-18T10:20:00;98545.38;;;13.63;56.43
18509;BME280;9383;50.928;12.116;2023-03-18T10:22:57;98542.84;;;13.78;55.87
18509;BME280;9383;50.928;12.116;2023-03-18T10:25:38;98541.22;;;13.91;55.83
18509;BME280;9383;50.928;12.116;2023-03-18T10:30:51;98545.75;;;14.21;55.06
18509;BME280;9383;50.928;12.116;2023-03-18T10:36:12;98520.50;;;14.29;54.34
18509;BME280;9383;50.928;12.116;2023-03-18T10:38:49;98540.13;;;14.58;54.62
18509;BME280;9383;50.928;12.116;2023-03-18T10:41:21;98537.59;;;14.71;55.54
18509;BME280;9383;50.928;12.116;2023-03-18T10:44:02;98535.28;;;14.81;53.61
18509;BME280;9383;50.928;12.116;2023-03-18T10:46:30;98543.78;;;14.88;54.71
18509;BME280;9383;50.928;12.116;2023-03-18T10:49:10;98536.06;;;14.98;56.18
18509;BME280;9383;50.928;12.116;2023-03-18T10:51:56;98537.91;;;14.97;53.43
18509;BME280;9383;50.928;12.116;2023-03-18T10:54:32;98544.75;;;15.01;54.55
18509;BME280;9383;50.928;12.116;2023-03-18T10:57:02;98540.56;;;14.97;54.80
18509;BME280;9383;50.928;12.116;2023-03-18T10:59:29;98538.75;;;14.98;54.88
18509;BME280;9383;50.928;12.116;2023-03-18T11:02:23;98538.19;;;15.07;55.58
18509;BME280;9383;50.928;12.116;2023-03-18T11:04:56;98534.31;;;15.13;55.19
18509;BME280;9383;50.928;12.116;2023-03-18T11:07:25;98536.50;;;15.21;55.48
18509;BME280;9383;50.928;12.116;2023-03-18T11:09:52;98544.94;;;15.29;56.73
18509;BME280;9383;50.928;12.116;2023-03-18T11:12:28;98547.13;;;15.37;55.17
18509;BME280;9383;50.928;12.116;2023-03-18T11:14:57;98545.59;;;15.47;56.12
18509;BME280;9383;50.928;12.116;2023-03-18T11:17:32;98541.41;;;15.57;55.98
18509;BME280;9383;50.928;12.116;2023-03-18T11:20:13;98540.06;;;15.65;56.25
18509;BME280;9383;50.928;12.116;2023-03-18T11:22:48;98540.25;;;15.76;56.84
18509;BME280;9383;50.928;12.116;2023-03-18T11:25:24;98536.75;;;15.90;56.56
18509;BME280;9383;50.928;12.116;2023-03-18T11:28:03;98533.38;;;16.01;54.72
18509;BME280;9383;50.928;12.116;2023-03-18T11:30:44;98534.50;;;16.11;54.82
18509;BME280;9383;50.928;12.116;2023-03-18T11:33:12;98527.91;;;16.17;54.67
18509;BME280;9383;50.928;12.116;2023-03-18T11:35:54;98525.63;;;16.11;53.70
18509;BME280;9383;50.928;12.116;2023-03-18T11:38:31;98523.31;;;16.19;52.83
18509;BME280;9383;50.928;12.116;2023-03-18T11:41:22;98523.47;;;16.30;53.71
18509;BME280;9383;50.928;12.116;2023-03-18T11:44:00;98515.25;;;16.34;53.65
18509;BME280;9383;50.928;12.116;2023-03-18T11:46:34;98522.88;;;16.40;53.82
18509;BME280;9383;50.928;12.116;2023-03-18T11:49:02;98513.06;;;16.53;54.10
18509;BME280;9383;50.928;12.116;2023-03-18T11:57:35;98505.78;;;16.83;53.71
18509;BME280;9383;50.928;12.116;2023-03-18T12:00:28;98503.72;;;16.86;53.15
18509;BME280;9383;50.928;12.116;2023-03-18T12:03:23;98499.56;;;16.95;54.49
18509;BME280;9383;50.928;12.116;2023-03-18T12:06:18;98501.09;;;16.99;51.93
18509;BME280;9383;50.928;12.116;2023-03-18T12:11:58;98500.47;;;17.22;53.31
18509;BME280;9383;50.928;12.116;2023-03-18T12:14:39;98449.03;;;17.04;53.02
18509;BME280;9383;50.928;12.116;2023-03-18T12:17:29;98510.44;;;17.46;51.84
18509;BME280;9383;50.928;12.116;2023-03-18T12:22:51;98506.38;;;17.53;53.44
18509;BME280;9383;50.928;12.116;2023-03-18T12:25:40;98506.56;;;17.63;50.71
18509;BME280;9383;50.928;12.116;2023-03-18T12:28:26;98497.31;;;17.80;51.23
18509;BME280;9383;50.928;12.116;2023-03-18T12:34:13;98498.69;;;17.85;49.55
18509;BME280;9383;50.928;12.116;2023-03-18T12:37:46;98491.47;;;17.99;49.99
18509;BME280;9383;50.928;12.116;2023-03-18T12:45:29;98483.38;;;18.12;47.16
18509;BME280;9383;50.928;12.116;2023-03-18T12:48:08;98475.56;;;18.09;46.95
18509;BME280;9383;50.928;12.116;2023-03-18T12:50:50;98451.44;;;18.09;48.15
18509;BME280;9383;50.928;12.116;2023-03-18T12:53:44;98482.28;;;18.27;48.90
18509;BME280;9383;50.928;12.116;2023-03-18T12:56:21;98478.03;;;18.36;50.02
18509;BME280;9383;50.928;12.116;2023-03-18T12:59:02;98479.06;;;18.47;49.02
18509;BME280;9383;50.928;12.116;2023-03-18T13:01:39;98474.19;;;18.52;48.49
18509;BME280;9383;50.928;12.116;2023-03-18T13:04:14;98478.97;;;18.60;48.57
18509;BME280;9383;50.928;12.116;2023-03-18T13:07:16;98471.81;;;18.60;46.90
18509;BME280;9383;50.928;12.116;2023-03-18T13:09:57;98478.28;;;18.69;46.87
18509;BME280;9383;50.928;12.116;2023-03-18T13:12:37;98472.34;;;18.77;46.99
18509;BME280;9383;50.928;12.116;2023-03-18T13:17:40;98459.22;;;18.96;47.69
18509;BME280;9383;50.928;12.116;2023-03-18T13:20:21;98461.91;;;18.96;46.03
18509;BME280;9383;50.928;12.116;2023-03-18T13:23:15;98460.09;;;19.08;46.62
18509;BME280;9383;50.928;12.116;2023-03-18T13:31:51;98453.66;;;19.11;46.11
18509;BME280;9383;50.928;12.116;2023-03-18T13:37:12;98453.13;;;19.06;46.16
18509;BME280;9383;50.928;12.116;2023-03-18T13:39:52;98454.34;;;19.02;46.74
18509;BME280;9383;50.928;12.116;2023-03-18T13:42:37;98447.34;;;18.99;45.72
18509;BME280;9383;50.928;12.116;2023-03-18T13:45:27;98450.94;;;19.00;46.40
18509;BME280;9383;50.928;12.116;2023-03-18T13:48:00;98445.03;;;18.94;46.31
18509;BME280;9383;50.928;12.116;2023-03-18T13:50:37;98447.59;;;18.96;46.90
18509;BME280;9383;50.928;12.116;2023-03-18T13:53:31;98435.78;;;18.98;47.17
18509;BME280;9383;50.928;12.116;2023-03-18T13:56:01;98445.66;;;18.98;46.08
18509;BME280;9383;50.928;12.116;2023-03-18T13:58:33;98443.31;;;18.93;45.74
18509;BME280;9383;50.928;12.116;2023-03-18T14:01:10;98443.81;;;18.87;45.83
18509;BME280;9383;50.928;12.116;2023-03-18T14:06:44;98444.06;;;18.84;46.06
18509;BME280;9383;50.928;12.116;2023-03-18T14:09:31;98433.53;;;18.81;46.33
18509;BME280;9383;50.928;12.116;2023-03-18T14:12:21;98439.38;;;18.75;46.52
18509;BME280;9383;50.928;12.116;2023-03-18T14:14:54;98429.72;;;18.72;46.55
18509;BME280;9383;50.928;12.116;2023-03-18T14:20:27;98437.41;;;18.65;46.52
18509;BME280;9383;50.928;12.116;2023-03-18T14:22:56;98433.69;;;18.55;46.87
18509;BME280;9383;50.928;12.116;2023-03-18T14:25:44;98428.44;;;18.42;47.25